GIA620 WADD-WAAA
Flight info
| Callsign | GIA620 |
|---|---|
| Flight time | N/A |
| Altitude | 35000 |
| Route | PEDET W41 LIPOT |
| Aircraft | B738/M-SDE2E3FGHIRWXY/LB1 |
Departure
| Time | 2026-04-27 17:37 |
|---|---|
| Airport | Denpasar I Gusti Ngurah Rai International Airport (WADD) |
Arrival
| Time | N/A |
|---|---|
| Airport | Sultan Hasanuddin International Airport (WAAA) |
| Time | Latitude | Longitude | Altitude | Speed | Heading |
|---|---|---|---|---|---|
| 2026-04-27 17:07 | -8.74568 | 115.16472 | 32 ft | 0 kts | 358° |
| 2026-04-27 17:25 | -8.74586 | 115.16473 | 30 ft | 3 kts | 358° |
| 2026-04-27 17:25 | -8.74607 | 115.16474 | 32 ft | 3 kts | 358° |
| 2026-04-27 17:25 | -8.74627 | 115.16475 | 30 ft | 3 kts | 358° |
| 2026-04-27 17:26 | -8.74648 | 115.16476 | 31 ft | 3 kts | 358° |
| 2026-04-27 17:26 | -8.74666 | 115.16477 | 30 ft | 3 kts | 4° |
| 2026-04-27 17:26 | -8.74683 | 115.16472 | 31 ft | 3 kts | 51° |
| 2026-04-27 17:26 | -8.74690 | 115.16455 | 31 ft | 3 kts | 84° |
| 2026-04-27 17:27 | -8.74691 | 115.16444 | 31 ft | 0 kts | 88° |
| 2026-04-27 17:30 | -8.74688 | 115.16493 | 30 ft | 8 kts | 86° |
| 2026-04-27 17:30 | -8.74683 | 115.16562 | 31 ft | 8 kts | 85° |
| 2026-04-27 17:31 | -8.74681 | 115.16609 | 31 ft | 8 kts | 92° |
| 2026-04-27 17:31 | -8.74681 | 115.16682 | 31 ft | 12 kts | 88° |
| 2026-04-27 17:31 | -8.74677 | 115.16782 | 31 ft | 16 kts | 87° |
| 2026-04-27 17:31 | -8.74671 | 115.16905 | 31 ft | 18 kts | 87° |
| 2026-04-27 17:32 | -8.74666 | 115.17029 | 31 ft | 17 kts | 88° |
| 2026-04-27 17:32 | -8.74656 | 115.17261 | 31 ft | 16 kts | 88° |
| 2026-04-27 17:32 | -8.74652 | 115.17370 | 31 ft | 15 kts | 88° |
| 2026-04-27 17:33 | -8.74648 | 115.17474 | 31 ft | 15 kts | 87° |
| 2026-04-27 17:33 | -8.74643 | 115.17574 | 31 ft | 14 kts | 87° |
| 2026-04-27 17:33 | -8.74639 | 115.17668 | 32 ft | 13 kts | 89° |
| 2026-04-27 17:33 | -8.74636 | 115.17760 | 32 ft | 13 kts | 88° |
| 2026-04-27 17:34 | -8.74633 | 115.17849 | 32 ft | 13 kts | 87° |
| 2026-04-27 17:34 | -8.74629 | 115.17936 | 32 ft | 12 kts | 87° |
| 2026-04-27 17:34 | -8.74625 | 115.18021 | 31 ft | 12 kts | 89° |
| 2026-04-27 17:34 | -8.74656 | 115.18092 | 31 ft | 12 kts | 152° |
| 2026-04-27 17:35 | -8.74710 | 115.18097 | 30 ft | 12 kts | 179° |
| 2026-04-27 17:35 | -8.74789 | 115.18055 | 28 ft | 11 kts | 274° |
| 2026-04-27 17:35 | -8.74790 | 115.18021 | 29 ft | 3 kts | 267° |
| 2026-04-27 17:35 | -8.74790 | 115.18015 | 29 ft | 0 kts | 268° |
| 2026-04-27 17:36 | -8.74790 | 115.18009 | 29 ft | 4 kts | 268° |
| 2026-04-27 17:36 | -8.74793 | 115.17915 | 29 ft | 43 kts | 267° |
| 2026-04-27 17:36 | -8.74816 | 115.17356 | 27 ft | 114 kts | 268° |
| 2026-04-27 17:36 | -8.74859 | 115.16352 | 49 ft | 169 kts | 265° |
| 2026-04-27 17:37 | -8.74972 | 115.15058 | 458 ft | 195 kts | 266° |
| 2026-04-27 17:37 | -8.75001 | 115.13679 | 1302 ft | 193 kts | 284° |
| 2026-04-27 17:37 | -8.74413 | 115.12515 | 2221 ft | 189 kts | 301° |
| 2026-04-27 17:37 | -8.73432 | 115.11545 | 2491 ft | 215 kts | 347° |
| 2026-04-27 17:38 | -8.71950 | 115.11718 | 2754 ft | 227 kts | 32° |
| 2026-04-27 17:38 | -8.70885 | 115.12909 | 3108 ft | 235 kts | 71° |